sensor_id;sensor_type;location;lat;lon;timestamp;pressure;altitude;pressure_sealevel;temperature;humidity
65276;BME280;51875;49.994;14.052;2023-03-01T00:00:10;99478.06;;;-3.30;100.00
65276;BME280;51875;49.994;14.052;2023-03-01T00:01:37;99482.31;;;-3.31;100.00
65276;BME280;51875;49.994;14.052;2023-03-01T00:02:53;99479.19;;;-3.23;100.00
65276;BME280;51875;49.994;14.052;2023-03-01T00:04:08;99476.94;;;-3.17;100.00
65276;BME280;51875;49.994;14.052;2023-03-01T00:05:24;99483.38;;;-3.45;100.00
65276;BME280;51875;49.994;14.052;2023-03-01T00:06:41;99478.91;;;-3.49;100.00
65276;BME280;51875;49.994;14.052;2023-03-01T00:07:58;99482.22;;;-3.52;100.00
65276;BME280;51875;49.994;14.052;2023-03-01T00:09:14;99481.13;;;-3.57;100.00
65276;BME280;51875;49.994;14.052;2023-03-01T00:10:30;99482.75;;;-3.59;100.00
65276;BME280;51875;49.994;14.052;2023-03-01T00:11:45;99484.78;;;-3.52;100.00
65276;BME280;51875;49.994;14.052;2023-03-01T00:13:02;99476.91;;;-3.37;100.00
65276;BME280;51875;49.994;14.052;2023-03-01T00:14:17;99478.13;;;-3.29;100.00
65276;BME280;51875;49.994;14.052;2023-03-01T00:15:33;99482.19;;;-3.34;100.00
65276;BME280;51875;49.994;14.052;2023-03-01T00:16:50;99483.75;;;-3.56;100.00
65276;BME280;51875;49.994;14.052;2023-03-01T00:18:06;99489.78;;;-3.55;100.00
65276;BME280;51875;49.994;14.052;2023-03-01T00:19:21;99482.81;;;-3.58;100.00
65276;BME280;51875;49.994;14.052;2023-03-01T00:20:37;99484.19;;;-3.84;100.00
65276;BME280;51875;49.994;14.052;2023-03-01T00:21:53;99487.94;;;-3.58;100.00
65276;BME280;51875;49.994;14.052;2023-03-01T00:23:09;99487.84;;;-3.59;100.00
65276;BME280;51875;49.994;14.052;2023-03-01T00:24:24;99486.00;;;-3.81;100.00
65276;BME280;51875;49.994;14.052;2023-03-01T00:25:43;99482.47;;;-3.65;100.00
65276;BME280;51875;49.994;14.052;2023-03-01T00:26:59;99485.41;;;-3.94;100.00
65276;BME280;51875;49.994;14.052;2023-03-01T00:28:15;99482.34;;;-3.87;100.00
65276;BME280;51875;49.994;14.052;2023-03-01T00:29:30;99485.31;;;-3.77;100.00
65276;BME280;51875;49.994;14.052;2023-03-01T00:30:46;99485.97;;;-3.63;100.00
65276;BME280;51875;49.994;14.052;2023-03-01T00:32:02;99483.97;;;-3.89;100.00
65276;BME280;51875;49.994;14.052;2023-03-01T00:33:18;99480.59;;;-3.88;100.00
65276;BME280;51875;49.994;14.052;2023-03-01T00:34:33;99478.84;;;-3.89;100.00
65276;BME280;51875;49.994;14.052;2023-03-01T00:35:49;99471.69;;;-3.96;100.00
65276;BME280;51875;49.994;14.052;2023-03-01T00:37:04;99478.19;;;-4.03;100.00
65276;BME280;51875;49.994;14.052;2023-03-01T00:38:20;99472.13;;;-3.87;100.00
65276;BME280;51875;49.994;14.052;2023-03-01T00:39:36;99471.81;;;-3.93;100.00
65276;BME280;51875;49.994;14.052;2023-03-01T00:40:52;99470.63;;;-3.81;100.00
65276;BME280;51875;49.994;14.052;2023-03-01T00:42:08;99476.66;;;-3.81;100.00
65276;BME280;51875;49.994;14.052;2023-03-01T00:43:23;99477.09;;;-4.08;100.00
65276;BME280;51875;49.994;14.052;2023-03-01T00:44:39;99472.81;;;-4.09;100.00
65276;BME280;51875;49.994;14.052;2023-03-01T00:45:54;99466.94;;;-4.06;100.00
65276;BME280;51875;49.994;14.052;2023-03-01T00:47:10;99468.63;;;-4.25;100.00
65276;BME280;51875;49.994;14.052;2023-03-01T00:48:26;99464.69;;;-4.00;100.00
65276;BME280;51875;49.994;14.052;2023-03-01T00:49:41;99460.06;;;-3.89;100.00
65276;BME280;51875;49.994;14.052;2023-03-01T00:50:57;99455.97;;;-4.04;100.00
65276;BME280;51875;49.994;14.052;2023-03-01T00:52:12;99455.81;;;-3.89;100.00
65276;BME280;51875;49.994;14.052;2023-03-01T00:53:28;99451.19;;;-3.78;100.00
65276;BME280;51875;49.994;14.052;2023-03-01T00:54:44;99451.88;;;-4.00;100.00
65276;BME280;51875;49.994;14.052;2023-03-01T00:55:59;99449.16;;;-3.85;100.00
65276;BME280;51875;49.994;14.052;2023-03-01T00:57:15;99452.25;;;-4.11;100.00
65276;BME280;51875;49.994;14.052;2023-03-01T00:58:31;99462.94;;;-4.01;100.00
65276;BME280;51875;49.994;14.052;2023-03-01T00:59:46;99458.09;;;-3.95;100.00
65276;BME280;51875;49.994;14.052;2023-03-01T01:01:29;99460.16;;;-4.06;100.00
65276;BME280;51875;49.994;14.052;2023-03-01T01:02:46;99460.31;;;-4.39;100.00
65276;BME280;51875;49.994;14.052;2023-03-01T01:04:10;99458.31;;;-4.45;100.00
65276;BME280;51875;49.994;14.052;2023-03-01T01:05:25;99454.72;;;-4.48;100.00
65276;BME280;51875;49.994;14.052;2023-03-01T01:06:44;99452.91;;;-4.33;100.00
65276;BME280;51875;49.994;14.052;2023-03-01T01:08:00;99457.09;;;-4.35;100.00
65276;BME280;51875;49.994;14.052;2023-03-01T01:09:17;99454.97;;;-4.26;100.00
65276;BME280;51875;49.994;14.052;2023-03-01T01:10:35;99449.56;;;-4.14;100.00
65276;BME280;51875;49.994;14.052;2023-03-01T01:11:51;99449.91;;;-4.06;100.00
65276;BME280;51875;49.994;14.052;2023-03-01T01:13:07;99451.38;;;-4.29;100.00
65276;BME280;51875;49.994;14.052;2023-03-01T01:14:22;99451.59;;;-4.06;100.00
65276;BME280;51875;49.994;14.052;2023-03-01T01:15:39;99454.44;;;-4.00;100.00
65276;BME280;51875;49.994;14.052;2023-03-01T01:16:55;99454.00;;;-3.91;100.00
65276;BME280;51875;49.994;14.052;2023-03-01T01:18:10;99455.69;;;-4.10;100.00
65276;BME280;51875;49.994;14.052;2023-03-01T01:19:26;99453.41;;;-3.86;100.00
65276;BME280;51875;49.994;14.052;2023-03-01T01:20:42;99451.66;;;-3.87;100.00
65276;BME280;51875;49.994;14.052;2023-03-01T01:21:57;99447.59;;;-3.81;100.00
65276;BME280;51875;49.994;14.052;2023-03-01T01:23:13;99450.03;;;-3.85;100.00
65276;BME280;51875;49.994;14.052;2023-03-01T01:24:29;99442.47;;;-4.01;100.00
65276;BME280;51875;49.994;14.052;2023-03-01T01:25:45;99437.47;;;-3.98;100.00
65276;BME280;51875;49.994;14.052;2023-03-01T01:27:00;99435.91;;;-4.32;100.00
65276;BME280;51875;49.994;14.052;2023-03-01T01:28:16;99442.47;;;-4.19;100.00
65276;BME280;51875;49.994;14.052;2023-03-01T01:29:31;99437.22;;;-4.22;100.00
65276;BME280;51875;49.994;14.052;2023-03-01T01:30:47;99439.19;;;-4.17;100.00
65276;BME280;51875;49.994;14.052;2023-03-01T01:32:03;99436.63;;;-4.17;100.00
65276;BME280;51875;49.994;14.052;2023-03-01T01:33:18;99429.69;;;-4.19;100.00
65276;BME280;51875;49.994;14.052;2023-03-01T01:34:34;99431.38;;;-4.38;100.00
65276;BME280;51875;49.994;14.052;2023-03-01T01:35:50;99429.59;;;-4.57;100.00
65276;BME280;51875;49.994;14.052;2023-03-01T01:37:05;99425.50;;;-4.72;100.00
65276;BME280;51875;49.994;14.052;2023-03-01T01:38:23;99433.97;;;-4.55;100.00
65276;BME280;51875;49.994;14.052;2023-03-01T01:39:38;99430.66;;;-4.54;100.00
65276;BME280;51875;49.994;14.052;2023-03-01T01:40:54;99427.06;;;-4.57;100.00
65276;BME280;51875;49.994;14.052;2023-03-01T01:42:15;99422.88;;;-4.55;100.00
65276;BME280;51875;49.994;14.052;2023-03-01T01:43:40;99421.28;;;-4.53;100.00
65276;BME280;51875;49.994;14.052;2023-03-01T01:47:05;99418.81;;;-4.51;100.00
65276;BME280;51875;49.994;14.052;2023-03-01T01:48:24;99418.94;;;-4.48;100.00
65276;BME280;51875;49.994;14.052;2023-03-01T01:49:48;99410.53;;;-4.64;100.00
65276;BME280;51875;49.994;14.052;2023-03-01T01:51:11;99408.94;;;-4.44;100.00
65276;BME280;51875;49.994;14.052;2023-03-01T01:52:34;99412.72;;;-4.35;100.00
65276;BME280;51875;49.994;14.052;2023-03-01T01:53:55;99414.78;;;-4.28;100.00
65276;BME280;51875;49.994;14.052;2023-03-01T01:55:26;99410.47;;;-4.29;100.00
65276;BME280;51875;49.994;14.052;2023-03-01T01:56:46;99413.03;;;-4.29;100.00
65276;BME280;51875;49.994;14.052;2023-03-01T01:58:05;99415.00;;;-4.23;100.00
65276;BME280;51875;49.994;14.052;2023-03-01T01:59:24;99409.69;;;-4.28;100.00
65276;BME280;51875;49.994;14.052;2023-03-01T02:00:40;99416.81;;;-4.21;100.00
65276;BME280;51875;49.994;14.052;2023-03-01T02:01:57;99415.28;;;-4.17;100.00
65276;BME280;51875;49.994;14.052;2023-03-01T02:03:23;99416.97;;;-4.18;100.00
65276;BME280;51875;49.994;14.052;2023-03-01T02:04:40;99405.63;;;-4.23;100.00
65276;BME280;51875;49.994;14.052;2023-03-01T02:06:02;99412.88;;;-4.14;100.00
65276;BME280;51875;49.994;14.052;2023-03-01T02:07:22;99410.16;;;-4.35;100.00
65276;BME280;51875;49.994;14.052;2023-03-01T02:08:40;99408.06;;;-4.44;100.00
65276;BME280;51875;49.994;14.052;2023-03-01T02:09:58;99412.59;;;-4.38;100.00
65276;BME280;51875;49.994;14.052;2023-03-01T02:11:14;99412.66;;;-4.73;100.00
65276;BME280;51875;49.994;14.052;2023-03-01T02:12:30;99409.78;;;-4.61;100.00
65276;BME280;51875;49.994;14.052;2023-03-01T02:13:47;99408.88;;;-4.45;100.00
65276;BME280;51875;49.994;14.052;2023-03-01T02:15:03;99409.97;;;-4.58;100.00
65276;BME280;51875;49.994;14.052;2023-03-01T02:16:19;99403.69;;;-4.47;100.00
65276;BME280;51875;49.994;14.052;2023-03-01T02:17:35;99400.09;;;-4.69;100.00
65276;BME280;51875;49.994;14.052;2023-03-01T02:18:52;99400.56;;;-4.59;100.00
65276;BME280;51875;49.994;14.052;2023-03-01T02:22:18;99403.88;;;-4.78;100.00
65276;BME280;51875;49.994;14.052;2023-03-01T02:23:36;99407.16;;;-4.81;100.00
65276;BME280;51875;49.994;14.052;2023-03-01T02:25:26;99406.63;;;-4.92;100.00
65276;BME280;51875;49.994;14.052;2023-03-01T02:26:47;99408.34;;;-4.74;100.00
65276;BME280;51875;49.994;14.052;2023-03-01T02:29:31;99400.34;;;-4.99;100.00
65276;BME280;51875;49.994;14.052;2023-03-01T02:30:49;99403.94;;;-5.12;100.00
65276;BME280;51875;49.994;14.052;2023-03-01T02:32:24;99401.06;;;-5.01;100.00
65276;BME280;51875;49.994;14.052;2023-03-01T02:33:41;99397.44;;;-5.23;100.00
65276;BME280;51875;49.994;14.052;2023-03-01T02:34:57;99401.78;;;-5.04;100.00
65276;BME280;51875;49.994;14.052;2023-03-01T02:36:17;99401.28;;;-4.97;100.00
65276;BME280;51875;49.994;14.052;2023-03-01T02:37:35;99399.88;;;-5.08;100.00
65276;BME280;51875;49.994;14.052;2023-03-01T02:38:53;99393.91;;;-5.08;100.00
65276;BME280;51875;49.994;14.052;2023-03-01T02:40:15;99393.63;;;-4.97;100.00
65276;BME280;51875;49.994;14.052;2023-03-01T02:41:36;99396.66;;;-4.87;100.00
65276;BME280;51875;49.994;14.052;2023-03-01T02:42:55;99392.78;;;-5.14;100.00
65276;BME280;51875;49.994;14.052;2023-03-01T02:44:11;99397.50;;;-4.87;100.00
65276;BME280;51875;49.994;14.052;2023-03-01T02:45:27;99398.09;;;-4.92;100.00
65276;BME280;51875;49.994;14.052;2023-03-01T02:46:45;99393.72;;;-5.12;100.00
65276;BME280;51875;49.994;14.052;2023-03-01T02:48:02;99389.81;;;-5.05;100.00
65276;BME280;51875;49.994;14.052;2023-03-01T02:49:28;99388.34;;;-4.83;100.00
65276;BME280;51875;49.994;14.052;2023-03-01T02:52:30;99392.50;;;-4.85;100.00
65276;BME280;51875;49.994;14.052;2023-03-01T02:54:05;99393.72;;;-4.77;100.00
65276;BME280;51875;49.994;14.052;2023-03-01T02:55:23;99393.94;;;-4.72;100.00
65276;BME280;51875;49.994;14.052;2023-03-01T02:56:39;99390.78;;;-4.85;100.00
65276;BME280;51875;49.994;14.052;2023-03-01T02:57:56;99392.38;;;-5.05;100.00
65276;BME280;51875;49.994;14.052;2023-03-01T02:59:12;99395.09;;;-5.02;100.00
65276;BME280;51875;49.994;14.052;2023-03-01T03:00:33;99393.50;;;-5.00;100.00
65276;BME280;51875;49.994;14.052;2023-03-01T03:01:50;99393.72;;;-4.95;100.00
65276;BME280;51875;49.994;14.052;2023-03-01T03:03:07;99395.91;;;-4.85;100.00
65276;BME280;51875;49.994;14.052;2023-03-01T03:04:22;99397.66;;;-4.84;100.00
65276;BME280;51875;49.994;14.052;2023-03-01T03:05:38;99397.03;;;-4.79;100.00
65276;BME280;51875;49.994;14.052;2023-03-01T03:06:54;99397.13;;;-4.94;100.00
65276;BME280;51875;49.994;14.052;2023-03-01T03:08:10;99397.66;;;-4.84;100.00
65276;BME280;51875;49.994;14.052;2023-03-01T03:09:26;99403.03;;;-4.61;100.00
65276;BME280;51875;49.994;14.052;2023-03-01T03:10:42;99399.53;;;-4.63;100.00
65276;BME280;51875;49.994;14.052;2023-03-01T03:12:00;99399.88;;;-4.55;100.00
65276;BME280;51875;49.994;14.052;2023-03-01T03:13:16;99398.41;;;-4.50;100.00
65276;BME280;51875;49.994;14.052;2023-03-01T03:14:32;99398.06;;;-4.58;100.00
65276;BME280;51875;49.994;14.052;2023-03-01T03:15:50;99393.38;;;-4.66;100.00
65276;BME280;51875;49.994;14.052;2023-03-01T03:17:05;99396.78;;;-4.84;100.00
65276;BME280;51875;49.994;14.052;2023-03-01T03:18:22;99398.69;;;-4.80;100.00
65276;BME280;51875;49.994;14.052;2023-03-01T03:19:41;99396.59;;;-4.71;100.00
65276;BME280;51875;49.994;14.052;2023-03-01T03:21:00;99393.97;;;-4.54;100.00
65276;BME280;51875;49.994;14.052;2023-03-01T03:22:15;99397.41;;;-4.54;100.00
65276;BME280;51875;49.994;14.052;2023-03-01T03:23:31;99397.59;;;-4.85;100.00
65276;BME280;51875;49.994;14.052;2023-03-01T03:24:47;99392.34;;;-4.70;100.00
65276;BME280;51875;49.994;14.052;2023-03-01T03:26:03;99389.97;;;-4.67;100.00
65276;BME280;51875;49.994;14.052;2023-03-01T03:27:19;99392.50;;;-4.85;100.00
65276;BME280;51875;49.994;14.052;2023-03-01T03:28:35;99388.00;;;-5.24;100.00
65276;BME280;51875;49.994;14.052;2023-03-01T03:29:51;99395.28;;;-5.15;100.00
65276;BME280;51875;49.994;14.052;2023-03-01T03:31:07;99393.22;;;-4.88;100.00
65276;BME280;51875;49.994;14.052;2023-03-01T03:32:23;99388.00;;;-4.89;100.00
65276;BME280;51875;49.994;14.052;2023-03-01T03:33:38;99389.38;;;-5.14;100.00
65276;BME280;51875;49.994;14.052;2023-03-01T03:34:54;99388.47;;;-5.15;100.00
65276;BME280;51875;49.994;14.052;2023-03-01T03:36:15;99381.94;;;-5.26;100.00
65276;BME280;51875;49.994;14.052;2023-03-01T03:37:32;99385.28;;;-5.11;100.00
65276;BME280;51875;49.994;14.052;2023-03-01T03:39:06;99385.72;;;-5.36;100.00
65276;BME280;51875;49.994;14.052;2023-03-01T03:40:22;99381.72;;;-5.14;100.00
65276;BME280;51875;49.994;14.052;2023-03-01T03:41:38;99378.41;;;-5.12;100.00
65276;BME280;51875;49.994;14.052;2023-03-01T03:42:54;99371.13;;;-5.22;100.00
65276;BME280;51875;49.994;14.052;2023-03-01T03:44:09;99373.53;;;-5.07;100.00
65276;BME280;51875;49.994;14.052;2023-03-01T03:45:25;99375.63;;;-5.00;100.00
65276;BME280;51875;49.994;14.052;2023-03-01T03:46:41;99371.75;;;-5.09;100.00
65276;BME280;51875;49.994;14.052;2023-03-01T03:47:56;99370.03;;;-5.09;100.00
65276;BME280;51875;49.994;14.052;2023-03-01T03:49:12;99372.19;;;-5.51;100.00
65276;BME280;51875;49.994;14.052;2023-03-01T03:50:28;99373.50;;;-5.08;100.00
65276;BME280;51875;49.994;14.052;2023-03-01T03:51:45;99366.50;;;-4.94;100.00
65276;BME280;51875;49.994;14.052;2023-03-01T03:53:04;99367.41;;;-5.11;100.00
65276;BME280;51875;49.994;14.052;2023-03-01T03:54:19;99367.28;;;-4.96;100.00
65276;BME280;51875;49.994;14.052;2023-03-01T03:55:36;99374.38;;;-4.90;100.00
65276;BME280;51875;49.994;14.052;2023-03-01T03:56:54;99370.88;;;-5.27;100.00
65276;BME280;51875;49.994;14.052;2023-03-01T03:58:10;99367.81;;;-5.19;100.00
65276;BME280;51875;49.994;14.052;2023-03-01T03:59:26;99371.97;;;-5.21;100.00
65276;BME280;51875;49.994;14.052;2023-03-01T04:00:44;99379.28;;;-5.46;100.00
65276;BME280;51875;49.994;14.052;2023-03-01T04:01:59;99370.94;;;-5.25;100.00
65276;BME280;51875;49.994;14.052;2023-03-01T04:03:16;99378.78;;;-5.22;100.00
65276;BME280;51875;49.994;14.052;2023-03-01T04:04:34;99370.09;;;-5.26;100.00
65276;BME280;51875;49.994;14.052;2023-03-01T04:05:50;99372.31;;;-5.32;100.00
65276;BME280;51875;49.994;14.052;2023-03-01T04:07:06;99368.09;;;-4.97;100.00
65276;BME280;51875;49.994;14.052;2023-03-01T04:08:22;99373.44;;;-4.92;100.00
65276;BME280;51875;49.994;14.052;2023-03-01T04:09:38;99370.94;;;-5.25;100.00
65276;BME280;51875;49.994;14.052;2023-03-01T04:11:00;99369.28;;;-4.90;100.00
65276;BME280;51875;49.994;14.052;2023-03-01T04:12:36;99376.84;;;-4.91;100.00
65276;BME280;51875;49.994;14.052;2023-03-01T04:13:53;99375.56;;;-5.18;100.00
65276;BME280;51875;49.994;14.052;2023-03-01T04:15:10;99370.22;;;-5.22;100.00
65276;BME280;51875;49.994;14.052;2023-03-01T04:16:29;99371.44;;;-4.98;100.00
65276;BME280;51875;49.994;14.052;2023-03-01T04:17:46;99366.91;;;-5.03;100.00
65276;BME280;51875;49.994;14.052;2023-03-01T04:19:02;99362.34;;;-4.74;100.00
65276;BME280;51875;49.994;14.052;2023-03-01T04:20:20;99368.84;;;-4.81;100.00
65276;BME280;51875;49.994;14.052;2023-03-01T04:21:40;99370.88;;;-4.92;100.00
65276;BME280;51875;49.994;14.052;2023-03-01T04:22:59;99368.84;;;-4.81;100.00
65276;BME280;51875;49.994;14.052;2023-03-01T04:24:25;99366.06;;;-4.86;100.00
65276;BME280;51875;49.994;14.052;2023-03-01T04:25:47;99364.41;;;-4.85;100.00
65276;BME280;51875;49.994;14.052;2023-03-01T04:27:11;99360.69;;;-4.74;100.00
65276;BME280;51875;49.994;14.052;2023-03-01T04:28:35;99364.69;;;-4.79;100.00
65276;BME280;51875;49.994;14.052;2023-03-01T04:29:51;99362.31;;;-4.92;100.00
65276;BME280;51875;49.994;14.052;2023-03-01T04:31:15;99368.34;;;-4.74;100.00
65276;BME280;51875;49.994;14.052;2023-03-01T04:32:33;99367.75;;;-4.68;100.00
65276;BME280;51875;49.994;14.052;2023-03-01T04:33:51;99372.78;;;-4.70;100.00
65276;BME280;51875;49.994;14.052;2023-03-01T04:35:08;99371.09;;;-4.69;100.00
65276;BME280;51875;49.994;14.052;2023-03-01T04:36:25;99365.47;;;-4.80;100.00
65276;BME280;51875;49.994;14.052;2023-03-01T04:37:41;99365.63;;;-4.77;100.00
65276;BME280;51875;49.994;14.052;2023-03-01T04:38:57;99369.75;;;-5.15;100.00
65276;BME280;51875;49.994;14.052;2023-03-01T04:40:13;99368.34;;;-5.27;100.00
65276;BME280;51875;49.994;14.052;2023-03-01T04:41:31;99366.81;;;-5.40;100.00
65276;BME280;51875;49.994;14.052;2023-03-01T04:42:47;99367.28;;;-5.30;100.00
65276;BME280;51875;49.994;14.052;2023-03-01T04:44:03;99365.44;;;-5.33;100.00
65276;BME280;51875;49.994;14.052;2023-03-01T04:45:20;99368.91;;;-5.49;100.00
65276;BME280;51875;49.994;14.052;2023-03-01T04:46:36;99373.34;;;-5.28;100.00
65276;BME280;51875;49.994;14.052;2023-03-01T04:47:52;99361.00;;;-5.02;100.00
65276;BME280;51875;49.994;14.052;2023-03-01T04:49:07;99365.31;;;-5.01;100.00
65276;BME280;51875;49.994;14.052;2023-03-01T04:50:22;99370.75;;;-4.95;100.00
65276;BME280;51875;49.994;14.052;2023-03-01T04:51:38;99368.00;;;-4.98;100.00
65276;BME280;51875;49.994;14.052;2023-03-01T04:52:55;99368.19;;;-5.12;100.00
65276;BME280;51875;49.994;14.052;2023-03-01T04:54:13;99375.03;;;-5.29;100.00
65276;BME280;51875;49.994;14.052;2023-03-01T04:55:29;99373.28;;;-5.30;100.00
65276;BME280;51875;49.994;14.052;2023-03-01T04:56:45;99373.41;;;-5.10;100.00
65276;BME280;51875;49.994;14.052;2023-03-01T04:58:01;99370.41;;;-5.01;100.00
65276;BME280;51875;49.994;14.052;2023-03-01T04:59:16;99364.38;;;-5.03;100.00
65276;BME280;51875;49.994;14.052;2023-03-01T05:00:32;99372.59;;;-5.09;100.00
65276;BME280;51875;49.994;14.052;2023-03-01T05:01:51;99371.00;;;-5.07;100.00
65276;BME280;51875;49.994;14.052;2023-03-01T05:03:08;99374.47;;;-5.23;100.00
65276;BME280;51875;49.994;14.052;2023-03-01T05:04:24;99374.66;;;-5.53;100.00
65276;BME280;51875;49.994;14.052;2023-03-01T05:05:40;99374.81;;;-5.67;100.00
65276;BME280;51875;49.994;14.052;2023-03-01T05:06:55;99375.03;;;-5.45;100.00
65276;BME280;51875;49.994;14.052;2023-03-01T05:08:14;99375.34;;;-5.22;100.00
65276;BME280;51875;49.994;14.052;2023-03-01T05:09:33;99373.88;;;-5.17;100.00
65276;BME280;51875;49.994;14.052;2023-03-01T05:10:51;99368.91;;;-5.32;100.00
65276;BME280;51875;49.994;14.052;2023-03-01T05:12:07;99376.16;;;-5.40;100.00
65276;BME280;51875;49.994;14.052;2023-03-01T05:13:22;99376.69;;;-5.29;100.00
65276;BME280;51875;49.994;14.052;2023-03-01T05:14:38;99374.44;;;-5.06;100.00
65276;BME280;51875;49.994;14.052;2023-03-01T05:15:55;99370.38;;;-5.19;100.00
65276;BME280;51875;49.994;14.052;2023-03-01T05:17:10;99370.22;;;-5.22;100.00
65276;BME280;51875;49.994;14.052;2023-03-01T05:18:28;99366.81;;;-5.40;100.00
65276;BME280;51875;49.994;14.052;2023-03-01T05:19:43;99367.78;;;-5.37;100.00
65276;BME280;51875;49.994;14.052;2023-03-01T05:21:07;99375.66;;;-5.16;100.00
65276;BME280;51875;49.994;14.052;2023-03-01T05:22:24;99368.38;;;-5.08;100.00
65276;BME280;51875;49.994;14.052;2023-03-01T05:23:40;99375.44;;;-5.37;100.00
65276;BME280;51875;49.994;14.052;2023-03-01T05:24:56;99371.22;;;-5.37;100.00
65276;BME280;51875;49.994;14.052;2023-03-01T05:26:11;99370.41;;;-5.36;100.00
65276;BME280;51875;49.994;14.052;2023-03-01T05:27:27;99375.19;;;-5.26;100.00
65276;BME280;51875;49.994;14.052;2023-03-01T05:28:45;99378.41;;;-5.30;100.00
65276;BME280;51875;49.994;14.052;2023-03-01T05:30:01;99375.91;;;-5.28;100.00
65276;BME280;51875;49.994;14.052;2023-03-01T05:31:28;99376.91;;;-5.59;100.00
65276;BME280;51875;49.994;14.052;2023-03-01T05:32:48;99382.38;;;-5.51;100.00
65276;BME280;51875;49.994;14.052;2023-03-01T05:34:05;99381.28;;;-5.57;100.00
65276;BME280;51875;49.994;14.052;2023-03-01T05:35:21;99384.59;;;-5.91;100.00
65276;BME280;51875;49.994;14.052;2023-03-01T05:36:37;99380.97;;;-6.13;100.00
65276;BME280;51875;49.994;14.052;2023-03-01T05:37:53;99380.78;;;-5.99;100.00
65276;BME280;51875;49.994;14.052;2023-03-01T05:39:09;99382.00;;;-5.76;100.00
65276;BME280;51875;49.994;14.052;2023-03-01T05:40:25;99380.41;;;-5.74;100.00
65276;BME280;51875;49.994;14.052;2023-03-01T05:41:40;99377.75;;;-5.59;100.00
65276;BME280;51875;49.994;14.052;2023-03-01T05:42:56;99378.00;;;-5.54;100.00
65276;BME280;51875;49.994;14.052;2023-03-01T05:44:12;99374.41;;;-5.41;100.00
65276;BME280;51875;49.994;14.052;2023-03-01T05:45:28;99375.50;;;-5.36;100.00
65276;BME280;51875;49.994;14.052;2023-03-01T05:46:43;99376.47;;;-5.34;100.00
65276;BME280;51875;49.994;14.052;2023-03-01T05:48:00;99376.34;;;-5.54;100.00
65276;BME280;51875;49.994;14.052;2023-03-01T05:49:16;99373.63;;;-5.57;100.00
65276;BME280;51875;49.994;14.052;2023-03-01T05:50:36;99377.28;;;-5.51;100.00
65276;BME280;51875;49.994;14.052;2023-03-01T05:51:53;99369.78;;;-5.48;100.00
65276;BME280;51875;49.994;14.052;2023-03-01T05:53:14;99376.09;;;-5.58;100.00
65276;BME280;51875;49.994;14.052;2023-03-01T05:54:30;99377.69;;;-5.60;100.00
65276;BME280;51875;49.994;14.052;2023-03-01T05:55:47;99375.38;;;-5.56;100.00
65276;BME280;51875;49.994;14.052;2023-03-01T05:57:03;99370.91;;;-5.43;100.00
65276;BME280;51875;49.994;14.052;2023-03-01T05:58:19;99373.78;;;-5.54;100.00
65276;BME280;51875;49.994;14.052;2023-03-01T05:59:35;99371.94;;;-5.73;100.00
65276;BME280;51875;49.994;14.052;2023-03-01T06:00:51;99371.13;;;-5.55;100.00
65276;BME280;51875;49.994;14.052;2023-03-01T06:02:06;99365.06;;;-5.41;100.00
65276;BME280;51875;49.994;14.052;2023-03-01T06:03:22;99365.16;;;-5.39;100.00
65276;BME280;51875;49.994;14.052;2023-03-01T06:04:37;99362.75;;;-5.36;100.00
65276;BME280;51875;49.994;14.052;2023-03-01T06:05:57;99364.09;;;-5.26;100.00
65276;BME280;51875;49.994;14.052;2023-03-01T06:07:12;99355.72;;;-5.23;100.00
65276;BME280;51875;49.994;14.052;2023-03-01T06:08:28;99359.06;;;-5.25;100.00
65276;BME280;51875;49.994;14.052;2023-03-01T06:09:43;99350.53;;;-5.25;100.00
65276;BME280;51875;49.994;14.052;2023-03-01T06:11:00;99341.66;;;-5.50;100.00
65276;BME280;51875;49.994;14.052;2023-03-01T06:12:15;99348.66;;;-5.46;100.00
65276;BME280;51875;49.994;14.052;2023-03-01T06:13:31;99354.28;;;-5.35;100.00
65276;BME280;51875;49.994;14.052;2023-03-01T06:14:47;99354.63;;;-5.45;100.00
65276;BME280;51875;49.994;14.052;2023-03-01T06:16:06;99359.28;;;-5.55;100.00
65276;BME280;51875;49.994;14.052;2023-03-01T06:17:22;99362.28;;;-5.62;100.00
65276;BME280;51875;49.994;14.052;2023-03-01T06:18:38;99366.59;;;-5.61;100.00
65276;BME280;51875;49.994;14.052;2023-03-01T06:19:54;99355.75;;;-5.40;100.00
65276;BME280;51875;49.994;14.052;2023-03-01T06:21:09;99363.56;;;-5.37;100.00
65276;BME280;51875;49.994;14.052;2023-03-01T06:22:25;99359.50;;;-5.33;100.00
65276;BME280;51875;49.994;14.052;2023-03-01T06:23:40;99361.81;;;-5.38;100.00
65276;BME280;51875;49.994;14.052;2023-03-01T06:24:56;99352.06;;;-5.45;100.00
65276;BME280;51875;49.994;14.052;2023-03-01T06:26:12;99359.50;;;-5.67;100.00
65276;BME280;51875;49.994;14.052;2023-03-01T06:27:27;99355.59;;;-5.76;100.00
65276;BME280;51875;49.994;14.052;2023-03-01T06:28:43;99355.75;;;-5.40;100.00
65276;BME280;51875;49.994;14.052;2023-03-01T06:30:01;99361.00;;;-5.37;100.00
65276;BME280;51875;49.994;14.052;2023-03-01T06:31:17;99366.03;;;-5.55;100.00
65276;BME280;51875;49.994;14.052;2023-03-01T06:32:33;99357.34;;;-5.59;100.00
65276;BME280;51875;49.994;14.052;2023-03-01T06:33:49;99354.72;;;-5.44;100.00
65276;BME280;51875;49.994;14.052;2023-03-01T06:35:05;99356.94;;;-5.33;100.00
65276;BME280;51875;49.994;14.052;2023-03-01T06:36:20;99353.97;;;-5.25;100.00
65276;BME280;51875;49.994;14.052;2023-03-01T06:37:37;99357.78;;;-5.16;100.00
65276;BME280;51875;49.994;14.052;2023-03-01T06:38:52;99358.88;;;-5.11;100.00
65276;BME280;51875;49.994;14.052;2023-03-01T06:40:10;99352.63;;;-5.00;100.00
65276;BME280;51875;49.994;14.052;2023-03-01T06:41:26;99350.97;;;-4.81;100.00
65276;BME280;51875;49.994;14.052;2023-03-01T06:42:47;99352.81;;;-4.60;100.00
65276;BME280;51875;49.994;14.052;2023-03-01T06:44:04;99359.81;;;-4.56;100.00
65276;BME280;51875;49.994;14.052;2023-03-01T06:45:21;99349.94;;;-4.48;100.00
65276;BME280;51875;49.994;14.052;2023-03-01T06:46:36;99356.97;;;-4.80;100.00